sensor_id;sensor_type;location;lat;lon;timestamp;pressure;altitude;pressure_sealevel;temperature;humidity
71043;BME280;58696;52.134;5.500;2024-03-02T00:00:26;99770.34;;;8.50;73.11
71043;BME280;58696;52.134;5.500;2024-03-02T00:02:55;99759.91;;;8.52;73.11
71043;BME280;58696;52.134;5.500;2024-03-02T00:05:24;99764.66;;;8.55;73.11
71043;BME280;58696;52.134;5.500;2024-03-02T00:07:54;99773.31;;;8.54;73.11
71043;BME280;58696;52.134;5.500;2024-03-02T00:10:27;99768.38;;;8.52;73.11
71043;BME280;58696;52.134;5.500;2024-03-02T00:13:04;99761.69;;;8.51;73.10
71043;BME280;58696;52.134;5.500;2024-03-02T00:15:53;99770.38;;;8.57;73.12
71043;BME280;58696;52.134;5.500;2024-03-02T00:20:58;99785.94;;;8.62;73.12
71043;BME280;58696;52.134;5.500;2024-03-02T00:23:33;99769.41;;;8.64;73.12
71043;BME280;58696;52.134;5.500;2024-03-02T00:26:01;99794.19;;;8.64;73.12
71043;BME280;58696;52.134;5.500;2024-03-02T00:28:33;99803.88;;;8.62;73.11
71043;BME280;58696;52.134;5.500;2024-03-02T00:33:49;99807.19;;;8.56;73.11
71043;BME280;58696;52.134;5.500;2024-03-02T00:36:25;99817.03;;;8.52;73.11
71043;BME280;58696;52.134;5.500;2024-03-02T00:38:55;99832.59;;;8.51;73.11
71043;BME280;58696;52.134;5.500;2024-03-02T00:41:24;99832.97;;;8.48;73.09
71043;BME280;58696;52.134;5.500;2024-03-02T00:46:20;99863.69;;;8.41;73.09
71043;BME280;58696;52.134;5.500;2024-03-02T00:48:54;99857.97;;;8.39;73.10
71043;BME280;58696;52.134;5.500;2024-03-02T00:51:23;99859.28;;;8.35;73.10
71043;BME280;58696;52.134;5.500;2024-03-02T00:53:51;99874.13;;;8.39;73.10
71043;BME280;58696;52.134;5.500;2024-03-02T00:56:23;99886.13;;;8.39;73.10
71043;BME280;58696;52.134;5.500;2024-03-02T00:58:49;99880.41;;;8.37;73.10
71043;BME280;58696;52.134;5.500;2024-03-02T01:01:17;99877.78;;;8.30;73.09
71043;BME280;58696;52.134;5.500;2024-03-02T01:03:46;99876.78;;;8.25;73.09
71043;BME280;58696;52.134;5.500;2024-03-02T01:06:16;99886.78;;;8.20;73.09
71043;BME280;58696;52.134;5.500;2024-03-02T01:08:43;99884.00;;;8.14;73.08
71043;BME280;58696;52.134;5.500;2024-03-02T01:11:15;99883.19;;;8.07;73.08
71043;BME280;58696;52.134;5.500;2024-03-02T01:13:44;99890.44;;;8.04;73.08
71043;BME280;58696;52.134;5.500;2024-03-02T01:16:13;99889.25;;;8.00;73.08
71043;BME280;58696;52.134;5.500;2024-03-02T01:18:40;99890.81;;;7.94;73.07
71043;BME280;58696;52.134;5.500;2024-03-02T01:21:07;99893.72;;;7.91;73.05
71043;BME280;58696;52.134;5.500;2024-03-02T01:23:33;99902.75;;;7.87;73.06
71043;BME280;58696;52.134;5.500;2024-03-02T01:26:00;99893.06;;;7.82;73.07
71043;BME280;58696;52.134;5.500;2024-03-02T01:28:32;99879.66;;;7.74;73.06
71043;BME280;58696;52.134;5.500;2024-03-02T01:31:04;99888.44;;;7.64;73.03
71043;BME280;58696;52.134;5.500;2024-03-02T01:33:31;99905.50;;;7.57;73.03
71043;BME280;58696;52.134;5.500;2024-03-02T01:36:00;99906.25;;;7.51;73.03
71043;BME280;58696;52.134;5.500;2024-03-02T01:38:27;99900.88;;;7.46;73.03
71043;BME280;58696;52.134;5.500;2024-03-02T01:40:55;99897.69;;;7.44;73.03
71043;BME280;58696;52.134;5.500;2024-03-02T01:43:25;99905.56;;;7.43;73.03
71043;BME280;58696;52.134;5.500;2024-03-02T01:45:54;99892.78;;;7.43;73.03
71043;BME280;58696;52.134;5.500;2024-03-02T01:48:21;99896.66;;;7.38;73.02
71043;BME280;58696;52.134;5.500;2024-03-02T01:50:48;99894.91;;;7.39;73.01
71043;BME280;58696;52.134;5.500;2024-03-02T01:53:18;99896.06;;;7.36;73.03
71043;BME280;58696;52.134;5.500;2024-03-02T01:55:45;99896.06;;;7.36;73.04
71043;BME280;58696;52.134;5.500;2024-03-02T01:58:14;99885.25;;;7.34;73.02
71043;BME280;58696;52.134;5.500;2024-03-02T02:00:43;99897.25;;;7.34;73.03
71043;BME280;58696;52.134;5.500;2024-03-02T02:03:12;99895.03;;;7.31;73.02
71043;BME280;58696;52.134;5.500;2024-03-02T02:05:44;99893.63;;;7.28;73.01
71043;BME280;58696;52.134;5.500;2024-03-02T02:08:14;99897.34;;;7.26;73.01
71043;BME280;58696;52.134;5.500;2024-03-02T02:10:40;99894.00;;;7.25;73.03
71043;BME280;58696;52.134;5.500;2024-03-02T02:13:09;99896.13;;;7.22;73.00
71043;BME280;58696;52.134;5.500;2024-03-02T02:15:38;99899.06;;;7.19;73.01
71043;BME280;58696;52.134;5.500;2024-03-02T02:18:05;99906.91;;;7.17;73.00
71043;BME280;58696;52.134;5.500;2024-03-02T02:20:34;99904.34;;;7.17;73.02
71043;BME280;58696;52.134;5.500;2024-03-02T02:23:06;99898.19;;;7.11;73.00
71043;BME280;58696;52.134;5.500;2024-03-02T02:25:35;99901.13;;;7.08;73.00
71043;BME280;58696;52.134;5.500;2024-03-02T02:28:02;99899.72;;;7.06;73.00
71043;BME280;58696;52.134;5.500;2024-03-02T02:30:32;99900.88;;;7.03;73.00
71043;BME280;58696;52.134;5.500;2024-03-02T02:32:59;99889.09;;;7.02;72.99
71043;BME280;58696;52.134;5.500;2024-03-02T02:35:29;99890.59;;;6.97;72.99
71043;BME280;58696;52.134;5.500;2024-03-02T02:37:59;99893.69;;;6.92;73.00
71043;BME280;58696;52.134;5.500;2024-03-02T02:40:26;99895.81;;;6.89;72.99
71043;BME280;58696;52.134;5.500;2024-03-02T02:42:52;99904.47;;;6.88;72.99
71043;BME280;58696;52.134;5.500;2024-03-02T02:45:21;99906.56;;;6.84;72.98
71043;BME280;58696;52.134;5.500;2024-03-02T02:47:48;99902.44;;;6.83;72.98
71043;BME280;58696;52.134;5.500;2024-03-02T02:50:15;99900.06;;;6.81;72.97
71043;BME280;58696;52.134;5.500;2024-03-02T02:52:44;99910.63;;;6.78;72.98
71043;BME280;58696;52.134;5.500;2024-03-02T02:55:13;99909.84;;;6.78;72.97
71043;BME280;58696;52.134;5.500;2024-03-02T02:57:42;99904.94;;;6.76;72.98
71043;BME280;58696;52.134;5.500;2024-03-02T03:00:14;99917.88;;;6.75;72.97
71043;BME280;58696;52.134;5.500;2024-03-02T03:02:47;99908.81;;;6.72;72.98
71043;BME280;58696;52.134;5.500;2024-03-02T03:05:16;99921.56;;;6.72;72.96
71043;BME280;58696;52.134;5.500;2024-03-02T03:07:43;99914.28;;;6.69;72.98
71043;BME280;58696;52.134;5.500;2024-03-02T03:10:11;99917.78;;;6.68;72.98
71043;BME280;58696;52.134;5.500;2024-03-02T03:12:40;99909.34;;;6.68;72.98
71043;BME280;58696;52.134;5.500;2024-03-02T03:15:11;99913.06;;;6.65;72.97
71043;BME280;58696;52.134;5.500;2024-03-02T03:17:38;99916.72;;;6.63;72.97
71043;BME280;58696;52.134;5.500;2024-03-02T03:20:06;99908.66;;;6.59;72.96
71043;BME280;58696;52.134;5.500;2024-03-02T03:22:37;99916.47;;;6.57;72.95
71043;BME280;58696;52.134;5.500;2024-03-02T03:25:09;99931.38;;;6.54;72.95
71043;BME280;58696;52.134;5.500;2024-03-02T03:27:35;99925.81;;;6.50;72.95
71043;BME280;58696;52.134;5.500;2024-03-02T03:30:05;99918.34;;;6.49;72.96
71043;BME280;58696;52.134;5.500;2024-03-02T03:32:32;99925.81;;;6.50;72.95
71043;BME280;58696;52.134;5.500;2024-03-02T03:35:01;99935.06;;;6.51;72.94
71043;BME280;58696;52.134;5.500;2024-03-02T03:37:28;99935.69;;;6.53;72.95
71043;BME280;58696;52.134;5.500;2024-03-02T03:40:00;99936.81;;;6.51;72.94
71043;BME280;58696;52.134;5.500;2024-03-02T03:42:27;99933.47;;;6.50;72.95
71043;BME280;58696;52.134;5.500;2024-03-02T03:44:56;99934.47;;;6.49;72.93
71043;BME280;58696;52.134;5.500;2024-03-02T03:47:25;99921.09;;;6.47;72.94
71043;BME280;58696;52.134;5.500;2024-03-02T03:49:51;99934.19;;;6.44;72.94
71043;BME280;58696;52.134;5.500;2024-03-02T03:52:18;99939.47;;;6.43;72.95
71043;BME280;58696;52.134;5.500;2024-03-02T03:54:45;99942.03;;;6.43;72.95
71043;BME280;58696;52.134;5.500;2024-03-02T03:57:14;99933.22;;;6.45;72.95
71043;BME280;58696;52.134;5.500;2024-03-02T03:59:40;99936.03;;;6.50;72.96
71043;BME280;58696;52.134;5.500;2024-03-02T04:02:10;99933.66;;;6.49;72.94
71043;BME280;58696;52.134;5.500;2024-03-02T04:04:41;99938.78;;;6.49;72.96
71043;BME280;58696;52.134;5.500;2024-03-02T04:07:10;99931.91;;;6.49;72.94
71043;BME280;58696;52.134;5.500;2024-03-02T04:09:36;99937.81;;;6.50;72.95
71043;BME280;58696;52.134;5.500;2024-03-02T04:12:05;99932.50;;;6.51;72.96
71043;BME280;58696;52.134;5.500;2024-03-02T04:14:35;99942.38;;;6.54;72.96
71043;BME280;58696;52.134;5.500;2024-03-02T04:17:01;99945.13;;;6.53;72.96
71043;BME280;58696;52.134;5.500;2024-03-02T04:19:30;99954.53;;;6.52;72.96
71043;BME280;58696;52.134;5.500;2024-03-02T04:21:56;99950.03;;;6.54;72.95
71043;BME280;58696;52.134;5.500;2024-03-02T04:24:29;99955.31;;;6.53;72.95
71043;BME280;58696;52.134;5.500;2024-03-02T04:26:58;99951.78;;;6.54;72.95
71043;BME280;58696;52.134;5.500;2024-03-02T04:29:29;99947.47;;;6.54;72.96
71043;BME280;58696;52.134;5.500;2024-03-02T04:31:55;99945.91;;;6.53;72.96
71043;BME280;58696;52.134;5.500;2024-03-02T04:34:22;99961.22;;;6.53;72.96
71043;BME280;58696;52.134;5.500;2024-03-02T04:36:48;99955.47;;;6.51;72.96
71043;BME280;58696;52.134;5.500;2024-03-02T04:39:16;99955.31;;;6.53;72.95
71043;BME280;58696;52.134;5.500;2024-03-02T04:41:48;99963.78;;;6.53;72.96
71043;BME280;58696;52.134;5.500;2024-03-02T04:44:17;99967.91;;;6.54;72.96
71043;BME280;58696;52.134;5.500;2024-03-02T04:46:43;99967.91;;;6.54;72.95
71043;BME280;58696;52.134;5.500;2024-03-02T04:49:10;99972.63;;;6.57;72.96
71043;BME280;58696;52.134;5.500;2024-03-02T04:51:36;99974.59;;;6.55;72.96
71043;BME280;58696;52.134;5.500;2024-03-02T04:54:05;99977.31;;;6.54;72.95
71043;BME280;58696;52.134;5.500;2024-03-02T04:56:34;99984.34;;;6.52;72.95
71043;BME280;58696;52.134;5.500;2024-03-02T04:59:11;99980.59;;;6.48;72.94
71043;BME280;58696;52.134;5.500;2024-03-02T05:01:42;99982.50;;;6.46;72.94
71043;BME280;58696;52.134;5.500;2024-03-02T05:04:11;99980.47;;;6.41;72.93
71043;BME280;58696;52.134;5.500;2024-03-02T05:06:38;99991.50;;;6.42;72.93
71043;BME280;58696;52.134;5.500;2024-03-02T05:09:08;99977.91;;;6.41;72.93
71043;BME280;58696;52.134;5.500;2024-03-02T05:11:35;99985.06;;;6.46;72.94
71043;BME280;58696;52.134;5.500;2024-03-02T05:14:06;99986.63;;;6.47;72.94
71043;BME280;58696;52.134;5.500;2024-03-02T05:16:34;99992.97;;;6.51;72.94
71043;BME280;58696;52.134;5.500;2024-03-02T05:19:03;99985.97;;;6.53;72.94
71043;BME280;58696;52.134;5.500;2024-03-02T05:21:29;99993.88;;;6.58;72.95
71043;BME280;58696;52.134;5.500;2024-03-02T05:24:01;99993.69;;;6.59;72.96
71043;BME280;58696;52.134;5.500;2024-03-02T05:26:27;99995.47;;;6.59;72.96
71043;BME280;58696;52.134;5.500;2024-03-02T05:28:56;99998.00;;;6.59;72.95
71043;BME280;58696;52.134;5.500;2024-03-02T05:31:25;99997.03;;;6.60;72.94
71043;BME280;58696;52.134;5.500;2024-03-02T05:33:52;99995.63;;;6.57;72.95
71043;BME280;58696;52.134;5.500;2024-03-02T05:36:23;99989.91;;;6.55;72.96
71043;BME280;58696;52.134;5.500;2024-03-02T05:38:50;99990.28;;;6.52;72.95
71043;BME280;58696;52.134;5.500;2024-03-02T05:41:16;99999.50;;;6.53;72.95
71043;BME280;58696;52.134;5.500;2024-03-02T05:43:43;99992.63;;;6.54;72.94
71043;BME280;58696;52.134;5.500;2024-03-02T05:46:09;99996.31;;;6.51;72.95
71043;BME280;58696;52.134;5.500;2024-03-02T05:48:36;99992.56;;;6.47;72.95
71043;BME280;58696;52.134;5.500;2024-03-02T05:51:05;99999.59;;;6.45;72.94
71043;BME280;58696;52.134;5.500;2024-03-02T05:53:31;99994.22;;;6.40;72.94
71043;BME280;58696;52.134;5.500;2024-03-02T05:56:00;100002.22;;;6.37;72.92
71043;BME280;58696;52.134;5.500;2024-03-02T05:58:31;100004.16;;;6.35;72.93
71043;BME280;58696;52.134;5.500;2024-03-02T06:01:09;100004.66;;;6.30;72.91
71043;BME280;58696;52.134;5.500;2024-03-02T06:03:39;100013.94;;;6.31;72.92
71043;BME280;58696;52.134;5.500;2024-03-02T06:06:05;100026.56;;;6.25;72.93
71043;BME280;58696;52.134;5.500;2024-03-02T06:08:38;100016.25;;;6.18;72.93
71043;BME280;58696;52.134;5.500;2024-03-02T06:11:06;100023.13;;;6.18;72.90
71043;BME280;58696;52.134;5.500;2024-03-02T06:13:33;100019.97;;;6.16;72.92
71043;BME280;58696;52.134;5.500;2024-03-02T06:16:02;100016.78;;;6.14;72.92
71043;BME280;58696;52.134;5.500;2024-03-02T06:18:32;100030.69;;;6.11;72.91
71043;BME280;58696;52.134;5.500;2024-03-02T06:21:01;100018.63;;;6.05;72.90
71043;BME280;58696;52.134;5.500;2024-03-02T06:23:27;100025.53;;;5.96;72.90
71043;BME280;58696;52.134;5.500;2024-03-02T06:25:54;100032.56;;;5.94;72.91
71043;BME280;58696;52.134;5.500;2024-03-02T06:28:20;100028.44;;;5.93;72.91
71043;BME280;58696;52.134;5.500;2024-03-02T06:30:47;100026.38;;;5.89;72.90
71043;BME280;58696;52.134;5.500;2024-03-02T06:33:16;100036.28;;;5.84;72.90
71043;BME280;58696;52.134;5.500;2024-03-02T06:35:45;100032.50;;;5.79;72.88
71043;BME280;58696;52.134;5.500;2024-03-02T06:38:14;100036.19;;;5.77;72.89
71043;BME280;58696;52.134;5.500;2024-03-02T06:40:41;100040.81;;;5.73;72.88
71043;BME280;58696;52.134;5.500;2024-03-02T06:43:07;100042.91;;;5.70;72.89
71043;BME280;58696;52.134;5.500;2024-03-02T06:45:36;100045.63;;;5.68;72.87
71043;BME280;58696;52.134;5.500;2024-03-02T06:48:03;100050.41;;;5.71;72.90
71043;BME280;58696;52.134;5.500;2024-03-02T06:50:32;100047.28;;;5.84;72.90
71043;BME280;58696;52.134;5.500;2024-03-02T06:53:01;100041.91;;;6.02;72.92
71043;BME280;58696;52.134;5.500;2024-03-02T06:55:30;100043.25;;;6.13;72.92
71043;BME280;58696;52.134;5.500;2024-03-02T06:57:59;100052.50;;;6.14;72.93
71043;BME280;58696;52.134;5.500;2024-03-02T07:00:26;100048.88;;;6.08;72.92
71043;BME280;58696;52.134;5.500;2024-03-02T07:02:52;100043.50;;;6.03;72.91
71043;BME280;58696;52.134;5.500;2024-03-02T07:05:21;100047.97;;;6.01;72.92
71043;BME280;58696;52.134;5.500;2024-03-02T07:07:48;100043.94;;;6.44;72.94
71043;BME280;58696;52.134;5.500;2024-03-02T07:10:16;100052.41;;;6.59;72.95
71043;BME280;58696;52.134;5.500;2024-03-02T07:12:43;100048.72;;;6.47;72.95
71043;BME280;58696;52.134;5.500;2024-03-02T07:15:11;100052.66;;;6.94;72.99
71043;BME280;58696;52.134;5.500;2024-03-02T07:17:48;100051.09;;;6.78;72.97
71043;BME280;58696;52.134;5.500;2024-03-02T07:20:22;100054.06;;;7.11;73.00
71043;BME280;58696;52.134;5.500;2024-03-02T07:22:49;100062.53;;;7.48;73.04
71043;BME280;58696;52.134;5.500;2024-03-02T07:25:18;100060.38;;;7.67;73.04
71043;BME280;58696;52.134;5.500;2024-03-02T07:27:50;100069.84;;;7.51;73.03
71043;BME280;58696;52.134;5.500;2024-03-02T07:30:17;100061.59;;;7.71;73.05
71043;BME280;58696;52.134;5.500;2024-03-02T07:32:49;100066.19;;;8.46;73.10
71043;BME280;58696;52.134;5.500;2024-03-02T07:35:16;100068.78;;;8.87;73.14
71043;BME280;58696;52.134;5.500;2024-03-02T07:37:42;100070.59;;;9.41;73.19
71043;BME280;58696;52.134;5.500;2024-03-02T07:40:10;100070.94;;;9.25;73.17
71043;BME280;58696;52.134;5.500;2024-03-02T07:42:41;100068.25;;;8.92;73.14
71043;BME280;58696;52.134;5.500;2024-03-02T07:45:08;100075.19;;;9.05;73.15
71043;BME280;58696;52.134;5.500;2024-03-02T07:47:35;100081.88;;;9.06;73.15
71043;BME280;58696;52.134;5.500;2024-03-02T07:50:02;100083.00;;;8.55;73.11
71043;BME280;58696;52.134;5.500;2024-03-02T07:52:29;100090.41;;;8.43;73.10
71043;BME280;58696;52.134;5.500;2024-03-02T07:54:56;100084.84;;;8.40;73.10
71043;BME280;58696;52.134;5.500;2024-03-02T07:57:22;100091.19;;;8.44;73.10
71043;BME280;58696;52.134;5.500;2024-03-02T07:59:49;100088.91;;;8.34;73.09
71043;BME280;58696;52.134;5.500;2024-03-02T08:02:16;100087.44;;;8.47;73.10
71043;BME280;58696;52.134;5.500;2024-03-02T08:04:47;100093.47;;;8.60;73.12
71043;BME280;58696;52.134;5.500;2024-03-02T08:07:14;100091.13;;;9.00;73.14
71043;BME280;58696;52.134;5.500;2024-03-02T08:09:45;100090.72;;;9.44;73.18
71043;BME280;58696;52.134;5.500;2024-03-02T08:12:14;100099.38;;;9.37;73.17
71043;BME280;58696;52.134;5.500;2024-03-02T08:14:41;100097.81;;;9.42;73.16
71043;BME280;58696;52.134;5.500;2024-03-02T08:17:07;100100.31;;;10.10;73.23
71043;BME280;58696;52.134;5.500;2024-03-02T08:19:36;100102.50;;;10.13;73.22
71043;BME280;58696;52.134;5.500;2024-03-02T08:22:03;100095.69;;;9.59;73.18
71043;BME280;58696;52.134;5.500;2024-03-02T08:24:32;100096.03;;;9.43;73.19
71043;BME280;58696;52.134;5.500;2024-03-02T08:26:59;100097.84;;;9.49;73.19
71043;BME280;58696;52.134;5.500;2024-03-02T08:29:29;100090.94;;;9.56;73.18
71043;BME280;58696;52.134;5.500;2024-03-02T08:32:01;100092.41;;;9.85;73.22
71043;BME280;58696;52.134;5.500;2024-03-02T08:34:30;100103.25;;;10.93;73.30
71043;BME280;58696;52.134;5.500;2024-03-02T08:36:56;100109.03;;;12.78;73.44
71043;BME280;58696;52.134;5.500;2024-03-02T08:39:25;100100.53;;;14.87;73.61
71043;BME280;58696;52.134;5.500;2024-03-02T08:41:52;100103.34;;;14.85;73.58
71043;BME280;58696;52.134;5.500;2024-03-02T08:44:22;100111.31;;;14.84;73.59
71043;BME280;58696;52.134;5.500;2024-03-02T08:46:48;100107.41;;;14.58;73.56
71043;BME280;58696;52.134;5.500;2024-03-02T08:49:17;100116.72;;;14.35;73.56
71043;BME280;58696;52.134;5.500;2024-03-02T08:51:43;100098.63;;;14.35;73.56
71043;BME280;58696;52.134;5.500;2024-03-02T08:54:26;100107.56;;;13.98;73.51
71043;BME280;58696;52.134;5.500;2024-03-02T08:56:55;100097.00;;;13.99;73.53
71043;BME280;58696;52.134;5.500;2024-03-02T08:59:23;100103.69;;;14.42;73.57
71043;BME280;58696;52.134;5.500;2024-03-02T09:01:51;100100.09;;;13.78;73.51
71043;BME280;58696;52.134;5.500;2024-03-02T09:04:18;100104.47;;;14.19;73.53
71043;BME280;58696;52.134;5.500;2024-03-02T09:06:47;100117.53;;;13.52;73.48
71043;BME280;58696;52.134;5.500;2024-03-02T09:09:14;100111.47;;;13.28;73.47
71043;BME280;58696;52.134;5.500;2024-03-02T09:11:41;100115.00;;;14.06;73.52
71043;BME280;58696;52.134;5.500;2024-03-02T09:14:10;100115.72;;;13.23;73.46
71043;BME280;58696;52.134;5.500;2024-03-02T09:16:39;100113.31;;;13.39;73.50
71043;BME280;58696;52.134;5.500;2024-03-02T09:19:08;100109.59;;;14.07;73.54
71043;BME280;58696;52.134;5.500;2024-03-02T09:21:35;100104.13;;;14.27;73.53
71043;BME280;58696;52.134;5.500;2024-03-02T09:24:02;100114.94;;;13.52;73.50
71043;BME280;58696;52.134;5.500;2024-03-02T09:26:29;100108.91;;;13.28;73.48
71043;BME280;58696;52.134;5.500;2024-03-02T09:28:58;100125.06;;;12.62;73.43
71043;BME280;58696;52.134;5.500;2024-03-02T09:31:25;100118.13;;;12.13;73.39
71043;BME280;58696;52.134;5.500;2024-03-02T09:33:54;100126.03;;;12.11;73.39
71043;BME280;58696;52.134;5.500;2024-03-02T09:36:25;100115.81;;;11.66;73.35
71043;BME280;58696;52.134;5.500;2024-03-02T09:38:52;100117.72;;;11.39;73.30
71043;BME280;58696;52.134;5.500;2024-03-02T09:41:18;100117.22;;;11.17;73.31
71043;BME280;58696;52.134;5.500;2024-03-02T09:43:46;100125.56;;;10.99;73.30
71043;BME280;58696;52.134;5.500;2024-03-02T09:46:15;100122.03;;;10.94;73.29
71043;BME280;58696;52.134;5.500;2024-03-02T09:48:44;100123.06;;;10.66;73.27
71043;BME280;58696;52.134;5.500;2024-03-02T09:51:13;100132.97;;;10.56;73.26
71043;BME280;58696;52.134;5.500;2024-03-02T09:53:40;100117.34;;;10.58;73.25
71043;BME280;58696;52.134;5.500;2024-03-02T09:56:10;100126.81;;;10.70;73.27
71043;BME280;58696;52.134;5.500;2024-03-02T09:58:36;100126.59;;;10.78;73.28
71043;BME280;58696;52.134;5.500;2024-03-02T10:01:08;100128.75;;;10.95;73.29
71043;BME280;58696;52.134;5.500;2024-03-02T10:03:39;100125.97;;;10.96;73.29
71043;BME280;58696;52.134;5.500;2024-03-02T10:08:47;100134.72;;;10.62;73.27
71043;BME280;58696;52.134;5.500;2024-03-02T10:11:33;100128.00;;;10.61;73.25
71043;BME280;58696;52.134;5.500;2024-03-02T10:14:22;100110.59;;;10.63;73.26
71043;BME280;58696;52.134;5.500;2024-03-02T10:16:48;100124.03;;;10.65;73.24
71043;BME280;58696;52.134;5.500;2024-03-02T10:24:17;100125.66;;;10.66;73.27
71043;BME280;58696;52.134;5.500;2024-03-02T10:26:44;100111.19;;;10.72;73.28
71043;BME280;58696;52.134;5.500;2024-03-02T10:29:11;100123.22;;;10.85;73.30
71043;BME280;58696;52.134;5.500;2024-03-02T10:31:39;100118.84;;;10.92;73.29
71043;BME280;58696;52.134;5.500;2024-03-02T10:34:07;100115.31;;;10.93;73.28
71043;BME280;58696;52.134;5.500;2024-03-02T10:36:34;100111.59;;;10.82;73.28
71043;BME280;58696;52.134;5.500;2024-03-02T10:39:03;100115.31;;;10.79;73.28
71043;BME280;58696;52.134;5.500;2024-03-02T10:41:33;100115.31;;;10.86;73.29
71043;BME280;58696;52.134;5.500;2024-03-02T10:44:08;100114.50;;;10.99;73.30
71043;BME280;58696;52.134;5.500;2024-03-02T10:46:41;100098.41;;;11.17;73.31
71043;BME280;58696;52.134;5.500;2024-03-02T10:49:10;100091.84;;;11.27;73.34
71043;BME280;58696;52.134;5.500;2024-03-02T10:51:42;100092.00;;;11.39;73.32
71043;BME280;58696;52.134;5.500;2024-03-02T10:54:09;100087.41;;;11.48;73.33
71043;BME280;58696;52.134;5.500;2024-03-02T10:56:42;100081.09;;;11.44;73.33
71043;BME280;58696;52.134;5.500;2024-03-02T11:02:01;100087.75;;;11.58;73.33
71043;BME280;58696;52.134;5.500;2024-03-02T11:04:32;100084.19;;;11.52;73.33
71043;BME280;58696;52.134;5.500;2024-03-02T11:07:07;100076.50;;;11.46;73.32
71043;BME280;58696;52.134;5.500;2024-03-02T11:09:35;100079.69;;;11.41;73.33
71043;BME280;58696;52.134;5.500;2024-03-02T11:12:12;100079.91;;;11.40;73.32
71043;BME280;58696;52.134;5.500;2024-03-02T11:14:42;100080.59;;;11.60;73.35
71043;BME280;58696;52.134;5.500;2024-03-02T11:17:14;100087.03;;;11.76;73.35
71043;BME280;58696;52.134;5.500;2024-03-02T11:19:43;100082.63;;;11.90;73.36
71043;BME280;58696;52.134;5.500;2024-03-02T11:22:13;100082.53;;;12.03;73.38
71043;BME280;58696;52.134;5.500;2024-03-02T11:24:51;100089.47;;;12.02;73.38
71043;BME280;58696;52.134;5.500;2024-03-02T11:33:03;100085.88;;;12.28;73.40
71043;BME280;58696;52.134;5.500;2024-03-02T11:35:35;100084.13;;;12.29;73.40
71043;BME280;58696;52.134;5.500;2024-03-02T11:38:01;100087.41;;;12.36;73.40
71043;BME280;58696;52.134;5.500;2024-03-02T11:40:30;100082.75;;;12.26;73.39
71043;BME280;58696;52.134;5.500;2024-03-02T11:42:59;100073.66;;;12.24;73.40
71043;BME280;58696;52.134;5.500;2024-03-02T11:45:31;100066.50;;;12.26;73.38
71043;BME280;58696;52.134;5.500;2024-03-02T11:48:00;100064.28;;;12.29;73.40
71043;BME280;58696;52.134;5.500;2024-03-02T11:50:47;100061.03;;;12.41;73.40
71043;BME280;58696;52.134;5.500;2024-03-02T11:53:20;100063.19;;;12.62;73.43
71043;BME280;58696;52.134;5.500;2024-03-02T11:55:49;100064.03;;;12.74;73.43
71043;BME280;58696;52.134;5.500;2024-03-02T11:58:16;100062.53;;;12.67;73.41
71043;BME280;58696;52.134;5.500;2024-03-02T12:00:56;100068.50;;;12.67;73.43
71043;BME280;58696;52.134;5.500;2024-03-02T12:03:27;100056.53;;;12.73;73.43
71043;BME280;58696;52.134;5.500;2024-03-02T12:05:55;100063.69;;;12.71;73.42
71043;BME280;58696;52.134;5.500;2024-03-02T12:08:22;100058.53;;;12.71;73.42
71043;BME280;58696;52.134;5.500;2024-03-02T12:11:01;100051.22;;;12.68;73.43
71043;BME280;58696;52.134;5.500;2024-03-02T12:13:30;100056.22;;;12.81;73.44
71043;BME280;58696;52.134;5.500;2024-03-02T12:15:57;100043.72;;;12.84;73.45
71043;BME280;58696;52.134;5.500;2024-03-02T12:18:24;100045.41;;;12.90;73.44
71043;BME280;58696;52.134;5.500;2024-03-02T12:20:56;100027.59;;;12.89;73.42
71043;BME280;58696;52.134;5.500;2024-03-02T12:23:25;100036.25;;;12.95;73.44
71043;BME280;58696;52.134;5.500;2024-03-02T12:25:53;100040.38;;;13.32;73.49
71043;BME280;58696;52.134;5.500;2024-03-02T12:28:19;100039.03;;;13.11;73.45
71043;BME280;58696;52.134;5.500;2024-03-02T12:30:49;100038.56;;;13.14;73.46
71043;BME280;58696;52.134;5.500;2024-03-02T12:33:16;100039.72;;;13.19;73.46
71043;BME280;58696;52.134;5.500;2024-03-02T12:35:43;100024.75;;;13.09;73.44
71043;BME280;58696;52.134;5.500;2024-03-02T12:38:14;100024.09;;;13.13;73.47
71043;BME280;58696;52.134;5.500;2024-03-02T12:40:40;100016.91;;;13.15;73.47
71043;BME280;58696;52.134;5.500;2024-03-02T12:43:15;100024.16;;;13.25;73.46
71043;BME280;58696;52.134;5.500;2024-03-02T12:45:42;100025.69;;;13.45;73.49
71043;BME280;58696;52.134;5.500;2024-03-02T12:48:10;100019.28;;;13.35;73.48
71043;BME280;58696;52.134;5.500;2024-03-02T12:50:37;100020.72;;;13.31;73.47
71043;BME280;58696;52.134;5.500;2024-03-02T12:53:04;100016.69;;;13.05;73.45
71043;BME280;58696;52.134;5.500;2024-03-02T12:55:31;100011.63;;;12.80;73.44
71043;BME280;58696;52.134;5.500;2024-03-02T12:57:57;100008.75;;;12.70;73.41
71043;BME280;58696;52.134;5.500;2024-03-02T13:00:28;100002.91;;;12.63;73.43
71043;BME280;58696;52.134;5.500;2024-03-02T13:02:56;99999.31;;;12.64;73.42
71043;BME280;58696;52.134;5.500;2024-03-02T13:05:34;100006.03;;;12.83;73.43
71043;BME280;58696;52.134;5.500;2024-03-02T13:08:02;100003.66;;;12.82;73.44
71043;BME280;58696;52.134;5.500;2024-03-02T13:10:32;100005.31;;;12.76;73.43
71043;BME280;58696;52.134;5.500;2024-03-02T13:13:01;100003.31;;;12.78;73.44
71043;BME280;58696;52.134;5.500;2024-03-02T13:15:32;100000.44;;;12.86;73.44
71043;BME280;58696;52.134;5.500;2024-03-02T13:17:59;100003.66;;;12.82;73.44
71043;BME280;58696;52.134;5.500;2024-03-02T13:20:33;100005.38;;;12.88;73.45
71043;BME280;58696;52.134;5.500;2024-03-02T13:23:02;99997.44;;;12.89;73.43
71043;BME280;58696;52.134;5.500;2024-03-02T13:25:31;99996.56;;;12.96;73.44
71043;BME280;58696;52.134;5.500;2024-03-02T13:27:59;100003.38;;;12.90;73.42
71043;BME280;58696;52.134;5.500;2024-03-02T13:30:31;99993.94;;;12.84;73.44
71043;BME280;58696;52.134;5.500;2024-03-02T13:33:00;99995.97;;;12.94;73.45